Terminal Aerodrome Forecast
Issued by NWS

Current Version | Previous Version | Text Only | Print | Product List | Glossary On
Versions: 1 2 3 4 5 6 7 8 9 10 11 12 13 14 15 16 17 18 19 20 21 22
000
FTAK31 PAJN 020527
TAFAPG
TAF
PAPG 020527Z 0206/0306 24007KT P6SM SKC
     FM021100 VRB03KT P6SM BCFG SCT001
     FM021800 06007KT P6SM FEW040
      AMD LTD TO CLD VIS AND WIND 0206/0215=

USA.gov is the U.S. government's official web portal to all federal, state and local government web resources and services.